Time;durP1;ratioP1;P1;durP2;ratioP2;P2;SDS_P1;SDS_P2;PMS_P1;PMS_P2;Temp;Humidity;BMP_temperature;BMP_pressure;BME280_temperature;BME280_humidity;BME280_pressure;Samples;Min_cycle;Max_cycle;Signal;HPM_P1;HPM_P2
2022/10/14 00:01:06;;;;;;;62.40;35.92;;;;;;;12.41;100.00;100997.88;4955315;29;20457;-69
2022/10/14 00:03:33;;;;;;;64.40;35.00;;;;;;;12.62;100.00;101013.06;4938076;29;20398;-69
2022/10/14 00:05:59;;;;;;;54.08;34.10;;;;;;;12.61;100.00;101022.19;4937826;29;20049;-70
2022/10/14 00:08:25;;;;;;;61.45;34.97;;;;;;;12.62;100.00;101013.06;4954213;28;20554;-70
2022/10/14 00:10:51;;;;;;;65.07;34.58;;;;;;;12.62;100.00;101012.25;4954996;29;20134;-70
2022/10/14 00:13:16;;;;;;;65.00;34.25;;;;;;;12.62;100.00;101017.66;4937919;29;20039;-69
2022/10/14 00:15:42;;;;;;;52.15;33.40;;;;;;;12.63;100.00;101016.59;4937842;29;20502;-70
2022/10/14 00:18:08;;;;;;;56.90;33.55;;;;;;;12.64;100.00;101010.16;4937747;29;20494;-69
2022/10/14 00:20:34;;;;;;;51.17;31.58;;;;;;;12.64;100.00;101012.84;4954884;29;20472;-69
2022/10/14 00:23:00;;;;;;;50.58;32.25;;;;;;;12.64;100.00;101002.06;4937591;29;20039;-69
2022/10/14 00:25:26;;;;;;;53.20;32.00;;;;;;;12.54;100.00;100983.56;4954453;29;20138;-70
2022/10/14 00:27:53;;;;;;;54.92;31.13;;;;;;;12.65;100.00;100996.47;4955216;29;20458;-70
2022/10/14 00:30:18;;;;;;;53.08;30.70;;;;;;;12.65;100.00;100992.94;4954671;29;20178;-71
2022/10/14 00:32:44;;;;;;;51.58;31.52;;;;;;;12.49;100.00;100967.19;4954630;29;20557;-70
2022/10/14 00:35:09;;;;;;;50.00;31.73;;;;;;;12.66;100.00;100997.28;4918293;29;20035;-70
2022/10/14 00:37:35;;;;;;;54.95;33.55;;;;;;;12.58;100.00;100982.13;4933906;29;20118;-70
2022/10/14 00:40:00;;;;;;;58.25;34.05;;;;;;;12.65;100.00;101001.84;4952638;29;20122;-70
2022/10/14 00:42:26;;;;;;;58.70;34.67;;;;;;;12.53;100.00;100978.38;4935435;29;20074;-70
2022/10/14 00:45:04;;;;;;;62.95;34.30;;;;;;;12.69;100.00;101000.41;4919504;29;20134;-70
2022/10/14 00:47:30;;;;;;;62.55;34.13;;;;;;;12.68;100.00;101006.00;4960906;28;20050;-70
2022/10/14 00:49:58;;;;;;;50.83;29.98;;;;;;;12.69;100.00;101003.09;4922427;29;20031;-70
2022/10/14 00:52:23;;;;;;;44.65;26.05;;;;;;;12.70;100.00;100993.13;4953199;29;20101;-70
2022/10/14 00:54:52;;;;;;;45.00;22.67;;;;;;;12.68;100.00;100993.34;4953854;29;20479;-69
2022/10/14 00:57:18;;;;;;;35.00;19.70;;;;;;;12.69;100.00;100991.47;4954166;29;20154;-69
2022/10/14 00:59:44;;;;;;;27.92;17.00;;;;;;;12.55;100.00;100968.19;4936958;29;20035;-69
2022/10/14 01:02:10;;;;;;;27.33;17.05;;;;;;;12.68;100.00;100990.66;4954235;29;20039;-69
2022/10/14 01:04:39;;;;;;;24.45;16.08;;;;;;;12.61;100.00;100975.47;4937127;29;20039;-69
2022/10/14 01:07:29;;;;;;;29.70;17.17;;;;;;;12.68;100.00;100982.53;4954143;29;20061;-69
2022/10/14 01:10:19;;;;;;;31.35;18.80;;;;;;;12.66;100.00;100995.41;4936565;29;20509;-70
2022/10/14 01:13:03;;;;;;;36.15;21.92;;;;;;;12.67;100.00;100980.03;4953970;29;20039;-69
2022/10/14 01:15:43;;;;;;;42.85;22.40;;;;;;;12.66;100.00;100984.59;4954331;28;20050;-69
2022/10/14 01:18:12;;;;;;;39.85;22.98;;;;;;;12.67;100.00;100978.16;4922128;29;20612;-69
2022/10/14 01:20:48;;;;;;;40.55;23.83;;;;;;;12.63;100.00;100971.53;4936696;29;20521;-69
2022/10/14 01:23:31;;;;;;;41.80;25.92;;;;;;;12.68;100.00;100982.53;4953799;29;20027;-70
2022/10/14 01:26:26;;;;;;;47.35;27.70;;;;;;;12.69;100.00;100981.50;4953342;28;20039;-70
2022/10/14 01:29:26;;;;;;;51.85;28.33;;;;;;;12.73;100.00;100991.88;4953871;28;20042;-70
2022/10/14 01:32:11;;;;;;;47.65;28.60;;;;;;;12.72;100.00;100982.13;4953359;29;20031;-70
2022/10/14 01:34:43;;;;;;;53.13;29.17;;;;;;;12.73;100.00;100981.91;4936508;29;20047;-70
2022/10/14 01:37:23;;;;;;;45.72;27.10;;;;;;;12.75;100.00;100979.84;4936297;29;20087;-70
2022/10/14 01:39:54;;;;;;;43.03;27.27;;;;;;;12.75;100.00;100982.53;4936132;29;20072;-69
2022/10/14 01:42:24;;;;;;;42.08;26.05;;;;;;;12.78;100.00;100989.38;4936197;29;20497;-69
2022/10/14 01:44:59;;;;;;;40.22;25.15;;;;;;;12.64;100.00;100959.69;4953145;28;20046;-70
2022/10/14 01:47:29;;;;;;;39.05;23.90;;;;;;;12.78;100.00;100992.06;4951334;29;20122;-69
2022/10/14 01:50:02;;;;;;;41.17;23.45;;;;;;;12.66;100.00;100967.59;4935942;29;20027;-69
2022/10/14 01:52:33;;;;;;;39.50;24.10;;;;;;;12.79;100.00;100988.34;4953108;29;20031;-69
2022/10/14 01:55:03;;;;;;;43.00;24.05;;;;;;;12.75;100.00;100977.13;4953224;29;20035;-70
2022/10/14 01:57:35;;;;;;;37.22;23.17;;;;;;;12.78;100.00;100978.56;4953395;29;20516;-69
2022/10/14 02:00:03;;;;;;;37.10;22.38;;;;;;;12.77;100.00;100974.22;4935289;29;20061;-69
2022/10/14 02:02:34;;;;;;;34.95;22.27;;;;;;;12.77;100.00;100974.22;4953160;29;20023;-70
2022/10/14 02:05:00;;;;;;;40.03;21.73;;;;;;;12.77;100.00;100974.22;4953198;29;20039;-70
2022/10/14 02:07:33;;;;;;;33.42;20.27;;;;;;;12.76;100.00;100972.56;4952837;29;20520;-71
2022/10/14 02:10:01;;;;;;;34.47;20.92;;;;;;;12.74;100.00;100980.84;4952965;29;20043;-71
2022/10/14 02:12:37;;;;;;;33.20;20.65;;;;;;;12.64;100.00;100959.69;4935789;29;20035;-69
2022/10/14 02:15:32;;;;;;;34.88;19.27;;;;;;;12.55;100.00;100949.31;4953157;29;20166;-70
2022/10/14 02:18:22;;;;;;;30.52;19.48;;;;;;;12.67;100.00;100967.38;4952932;28;20049;-70
2022/10/14 02:20:58;;;;;;;30.90;19.08;;;;;;;12.67;100.00;100975.47;4952951;29;20055;-70
2022/10/14 02:23:32;;;;;;;28.92;18.40;;;;;;;12.68;100.00;100974.44;4953244;29;20027;-70
2022/10/14 02:26:01;;;;;;;27.83;18.77;;;;;;;12.64;100.00;100970.47;4935230;29;20047;-70
2022/10/14 02:28:30;;;;;;;30.48;19.20;;;;;;;12.48;100.00;100938.50;4952842;29;20086;-70
2022/10/14 02:31:06;;;;;;;32.78;20.08;;;;;;;12.67;100.00;100969.25;4952865;29;20399;-70
2022/10/14 02:33:44;;;;;;;31.77;18.73;;;;;;;12.68;100.00;100969.03;4935575;29;20055;-70
2022/10/14 02:36:14;;;;;;;32.40;19.50;;;;;;;12.66;100.00;100962.19;4916032;29;20035;-70
2022/10/14 02:38:40;;;;;;;28.42;19.35;;;;;;;12.56;100.00;100948.28;4936180;29;20070;-70
2022/10/14 02:41:10;;;;;;;34.85;20.58;;;;;;;12.66;100.00;100960.31;4952835;29;20055;-69
2022/10/14 02:43:36;;;;;;;33.85;20.80;;;;;;;12.67;100.00;100963.84;4952475;28;20048;-70
2022/10/14 02:46:03;;;;;;;35.53;20.98;;;;;;;12.49;100.00;100934.78;4919716;29;20038;-70
2022/10/14 02:48:29;;;;;;;37.47;20.92;;;;;;;12.65;100.00;100958.66;4952878;29;20035;-69
2022/10/14 02:50:54;;;;;;;35.05;20.55;;;;;;;12.50;100.00;100936.44;4919610;29;20031;-69
2022/10/14 02:53:19;;;;;;;32.30;20.42;;;;;;;12.61;100.00;100962.78;4952596;29;20516;-70
2022/10/14 02:55:45;;;;;;;31.77;20.00;;;;;;;12.63;100.00;100963.44;4936637;29;20039;-69
2022/10/14 02:58:10;;;;;;;31.95;20.17;;;;;;;12.62;100.00;100971.75;4922164;29;20032;-69
2022/10/14 03:00:36;;;;;;;35.65;20.55;;;;;;;12.60;100.00;100971.94;4953653;28;20039;-70
2022/10/14 03:03:01;;;;;;;30.83;20.00;;;;;;;12.45;100.00;100947.88;4952532;28;20039;-69
2022/10/14 03:05:27;;;;;;;38.33;19.25;;;;;;;12.58;100.00;100976.75;4935586;29;20157;-69
2022/10/14 03:07:52;;;;;;;33.58;18.60;;;;;;;12.53;100.00;100962.19;4952492;29;20058;-69
2022/10/14 03:10:18;;;;;;;29.73;17.92;;;;;;;12.55;100.00;100970.91;4935322;29;20050;-70
2022/10/14 03:13:03;;;;;;;32.42;17.27;;;;;;;12.53;100.00;100970.28;4915495;29;20087;-70
2022/10/14 03:15:28;;;;;;;29.52;16.65;;;;;;;12.50;100.00;100968.84;4899941;29;20083;-70
2022/10/14 03:17:54;;;;;;;30.80;17.75;;;;;;;12.49;100.00;100971.75;4915707;29;20131;-69
2022/10/14 03:20:19;;;;;;;25.77;15.68;;;;;;;12.47;100.00;100969.25;4900006;29;20032;-69
2022/10/14 03:22:44;;;;;;;33.55;16.73;;;;;;;12.29;100.00;100948.28;4899595;29;20587;-69
2022/10/14 03:25:10;;;;;;;27.65;15.75;;;;;;;12.43;100.00;100971.53;4880775;29;20542;-69
2022/10/14 03:27:36;;;;;;;24.23;15.93;;;;;;;12.42;100.00;100982.53;4896232;29;20062;-70
2022/10/14 03:30:02;;;;;;;29.80;15.93;;;;;;;12.28;100.00;100959.28;4883849;29;20035;-70
2022/10/14 03:32:28;;;;;;;22.60;14.07;;;;;;;12.38;100.00;100978.56;4915399;29;20114;-70
2022/10/14 03:34:53;;;;;;;24.67;14.02;;;;;;;12.36;100.00;100972.56;4899866;29;20499;-70
2022/10/14 03:37:20;;;;;;;20.50;12.60;;;;;;;12.35;100.00;100978.97;4915374;29;20051;-70
2022/10/14 03:39:45;;;;;;;18.17;11.70;;;;;;;12.32;100.00;100971.34;4915134;29;20068;-70
2022/10/14 03:42:10;;;;;;;21.05;11.27;;;;;;;12.30;100.00;100978.78;4899398;29;20123;-70
2022/10/14 03:44:36;;;;;;;21.73;11.15;;;;;;;12.27;100.00;100971.94;4944571;29;20137;-70
2022/10/14 03:47:01;;;;;;;17.35;10.70;;;;;;;12.26;100.00;100977.56;4955280;28;20414;-70
2022/10/14 03:49:26;;;;;;;16.58;9.88;;;;;;;12.23;100.00;100968.00;4955619;29;20035;-70
2022/10/14 03:51:52;;;;;;;15.30;9.55;;;;;;;12.20;100.00;100968.41;4938001;29;20035;-70
2022/10/14 03:54:17;;;;;;;11.88;8.23;;;;;;;12.06;100.00;100943.28;4955244;29;20119;-70
2022/10/14 03:56:43;;;;;;;13.23;8.38;;;;;;;12.19;100.00;100966.75;4955390;29;20090;-70
2022/10/14 03:59:08;;;;;;;15.07;7.80;;;;;;;12.16;100.00;100962.59;4938084;29;20059;-70
2022/10/14 04:01:34;;;;;;;15.23;7.80;;;;;;;12.18;100.00;100965.06;4938427;29;20042;-70
2022/10/14 04:03:59;;;;;;;10.85;7.53;;;;;;;12.15;100.00;100950.16;4954916;29;20038;-70
2022/10/14 04:06:25;;;;;;;12.00;7.22;;;;;;;12.19;100.00;100962.19;4955292;29;20541;-70
2022/10/14 04:08:50;;;;;;;17.52;6.45;;;;;;;12.17;100.00;100960.72;4954926;29;20488;-70
2022/10/14 04:11:16;;;;;;;16.17;5.88;;;;;;;12.16;100.00;100964.47;4955311;29;20106;-70
2022/10/14 04:13:42;;;;;;;12.18;5.03;;;;;;;12.13;100.00;100957.59;4954597;28;20109;-69
2022/10/14 04:16:11;;;;;;;10.95;3.85;;;;;;;12.10;100.00;100960.72;4954980;29;20054;-69
2022/10/14 04:18:37;;;;;;;13.95;3.50;;;;;;;12.10;100.00;100962.59;4955085;29;20031;-70
2022/10/14 04:21:05;;;;;;;16.23;3.10;;;;;;;12.03;100.00;100954.47;4937524;29;20031;-69
2022/10/14 04:23:31;;;;;;;12.00;3.05;;;;;;;12.00;100.00;100960.28;4954350;28;20027;-69
2022/10/14 04:25:57;;;;;;;12.15;2.70;;;;;;;12.00;100.00;100957.59;4937594;29;20075;-69
2022/10/14 04:28:23;;;;;;;12.95;2.90;;;;;;;11.96;100.00;100956.34;4937542;29;20063;-70
2022/10/14 04:30:49;;;;;;;11.43;2.50;;;;;;;11.92;100.00;100949.66;4954812;28;20429;-70
2022/10/14 04:33:14;;;;;;;13.30;2.58;;;;;;;11.69;100.00;100925.75;4954541;29;20036;-71
2022/10/14 04:35:40;;;;;;;12.40;2.60;;;;;;;11.80;100.00;100952.13;4954669;28;20056;-68
2022/10/14 04:38:05;;;;;;;9.45;2.55;;;;;;;11.74;100.00;100945.66;4954553;28;20034;-70
2022/10/14 04:40:31;;;;;;;15.68;2.75;;;;;;;11.54;100.00;100923.22;4918182;29;20032;-70
2022/10/14 04:42:57;;;;;;;20.55;2.80;;;;;;;11.64;100.00;100944.41;4918418;29;20487;-69
2022/10/14 04:45:24;;;;;;;13.18;2.38;;;;;;;11.59;100.00;100944.16;4949112;29;20038;-69
2022/10/14 04:47:50;;;;;;;11.48;2.20;;;;;;;11.54;100.00;100936.69;4954349;29;20098;-69
2022/10/14 04:50:16;;;;;;;14.63;2.15;;;;;;;11.50;100.00;100951.59;4937497;28;20031;-69
2022/10/14 04:52:41;;;;;;;16.38;2.35;;;;;;;11.46;100.00;100940.41;4954455;29;20035;-69
2022/10/14 04:55:07;;;;;;;12.70;2.30;;;;;;;11.33;100.00;100937.66;4917903;29;20046;-69
2022/10/14 04:57:32;;;;;;;11.05;2.20;;;;;;;11.37;100.00;100943.47;4932276;29;20110;-69
2022/10/14 04:59:58;;;;;;;10.43;2.20;;;;;;;11.16;100.00;100923.69;4954101;29;20065;-69
2022/10/14 05:02:23;;;;;;;14.50;2.50;;;;;;;11.26;100.00;100947.56;4954202;29;20061;-69
2022/10/14 05:04:49;;;;;;;17.75;2.63;;;;;;;11.11;100.00;100919.94;4953724;29;20035;-69
2022/10/14 05:07:14;;;;;;;12.27;2.20;;;;;;;11.16;100.00;100929.09;4936975;29;20429;-69
2022/10/14 05:09:39;;;;;;;10.75;1.92;;;;;;;11.23;100.00;100945.28;4936753;29;20038;-70
2022/10/14 05:12:05;;;;;;;11.68;1.88;;;;;;;11.19;100.00;100947.53;4954101;29;20102;-70
2022/10/14 05:14:30;;;;;;;15.00;2.28;;;;;;;11.21;100.00;100955.41;4936701;29;20144;-70
2022/10/14 05:16:59;;;;;;;12.68;2.20;;;;;;;11.13;100.00;100937.56;4936720;29;20062;-70
2022/10/14 05:19:24;;;;;;;18.08;2.35;;;;;;;11.19;100.00;100955.63;4953921;29;20058;-69
2022/10/14 05:21:50;;;;;;;18.08;2.60;;;;;;;11.19;100.00;100947.53;4936229;29;20411;-69
2022/10/14 05:24:15;;;;;;;18.83;2.22;;;;;;;11.18;100.00;100947.72;4953986;29;20479;-70
2022/10/14 05:26:41;;;;;;;18.45;5.05;;;;;;;11.15;100.00;100942.75;4954380;29;20043;-70
2022/10/14 05:29:08;;;;;;;20.50;9.07;;;;;;;11.17;100.00;100943.38;4954288;28;20047;-72
2022/10/14 05:31:33;;;;;;;19.55;4.22;;;;;;;11.16;100.00;100941.69;4953971;29;20030;-72
2022/10/14 05:33:59;;;;;;;17.10;2.38;;;;;;;11.12;100.00;100938.56;4920214;28;20097;-69
2022/10/14 05:36:24;;;;;;;15.93;2.10;;;;;;;11.18;100.00;100945.03;4921157;29;20051;-72
2022/10/14 05:38:49;;;;;;;15.82;2.63;;;;;;;11.18;100.00;100943.16;4946626;29;20022;-71
2022/10/14 05:41:15;;;;;;;25.50;14.05;;;;;;;11.16;100.00;100942.56;4954424;29;20050;-72
2022/10/14 05:43:40;;;;;;;14.55;4.43;;;;;;;11.15;100.00;100948.94;4937586;29;20067;-71
2022/10/14 05:46:06;;;;;;;10.40;1.95;;;;;;;11.15;100.00;100943.56;4905432;29;20445;-68
2022/10/14 05:48:32;;;;;;;14.82;2.53;;;;;;;11.14;100.00;100941.09;4952187;28;20068;-72
2022/10/14 05:51:02;;;;;;;10.00;2.15;;;;;;;11.11;100.00;100933.41;4936502;29;20035;-72
2022/10/14 05:53:27;;;;;;;12.73;1.90;;;;;;;11.11;100.00;100941.47;4917920;29;20167;-69
2022/10/14 05:56:04;;;;;;;13.23;2.35;;;;;;;11.13;100.00;100942.94;4951885;29;20102;-72
2022/10/14 05:58:30;;;;;;;13.02;2.40;;;;;;;11.14;100.00;100938.38;4936890;29;20035;-72
2022/10/14 06:00:59;;;;;;;12.77;1.85;;;;;;;11.14;100.00;100949.16;4954153;28;20424;-72
2022/10/14 06:03:24;;;;;;;15.20;2.28;;;;;;;11.15;100.00;100943.56;4936730;29;20035;-74
2022/10/14 06:05:50;;;;;;;15.82;2.20;;;;;;;11.12;100.00;100935.88;4936173;29;20027;-72
2022/10/14 06:08:16;;;;;;;9.23;1.90;;;;;;;11.18;100.00;100948.56;4917702;29;20510;-73
2022/10/14 06:10:41;;;;;;;16.70;2.20;;;;;;;11.22;100.00;100947.13;4921090;29;20504;-72
2022/10/14 06:13:06;;;;;;;16.30;2.08;;;;;;;11.23;100.00;100940.72;4936198;29;20049;-72
2022/10/14 06:15:34;;;;;;;13.32;3.25;;;;;;;11.18;100.00;100935.09;4935905;29;20089;-73
2022/10/14 06:17:59;;;;;;;14.00;2.45;;;;;;;11.29;100.00;100944.44;4952628;29;20042;-73
2022/10/14 06:20:25;;;;;;;11.75;2.55;;;;;;;11.31;100.00;100947.78;4936316;29;20498;-73
2022/10/14 06:22:50;;;;;;;9.15;1.92;;;;;;;11.32;100.00;100944.06;4935893;29;20049;-73
2022/10/14 06:25:15;;;;;;;12.68;1.70;;;;;;;11.37;100.00;100952.38;4935783;29;20569;-73
2022/10/14 06:27:41;;;;;;;9.68;1.63;;;;;;;11.35;100.00;100946.34;4948745;29;20075;-73
2022/10/14 06:30:07;;;;;;;12.45;1.98;;;;;;;11.24;100.00;100914.59;4951313;29;20035;-73
2022/10/14 06:32:33;;;;;;;11.30;2.90;;;;;;;11.19;100.00;100906.28;4950618;29;20118;-72
2022/10/14 06:34:59;;;;;;;15.65;2.53;;;;;;;11.35;100.00;100929.34;4953208;29;20115;-72
2022/10/14 06:37:24;;;;;;;12.45;2.42;;;;;;;11.46;100.00;100940.41;4920068;29;20384;-73
2022/10/14 06:39:49;;;;;;;12.25;2.03;;;;;;;11.49;100.00;100944.56;4951624;28;20039;-72
2022/10/14 06:42:15;;;;;;;10.90;2.30;;;;;;;11.50;100.00;100947.03;4950615;29;20079;-72
2022/10/14 06:44:40;;;;;;;10.63;1.95;;;;;;;11.56;100.00;100945.41;4950720;29;20035;-72
2022/10/14 06:47:07;;;;;;;12.18;1.92;;;;;;;11.62;100.00;100939.22;4914550;29;20031;-73
2022/10/14 06:49:32;;;;;;;10.65;1.67;;;;;;;11.47;100.00;100915.09;4936378;29;20054;-73
2022/10/14 06:51:58;;;;;;;11.93;1.70;;;;;;;11.70;100.00;100935.50;4938258;29;20121;-72
2022/10/14 06:54:23;;;;;;;8.27;1.55;;;;;;;11.67;100.00;100934.03;4955454;29;20031;-73
2022/10/14 06:56:48;;;;;;;9.88;1.60;;;;;;;11.79;100.00;100949.59;4938068;29;20039;-72
2022/10/14 06:59:14;;;;;;;9.13;2.08;;;;;;;11.81;100.00;100944.84;4937655;29;20094;-73
2022/10/14 07:01:39;;;;;;;15.05;1.80;;;;;;;11.87;100.00;100942.19;4956462;28;20118;-72
2022/10/14 07:04:05;;;;;;;11.40;1.60;;;;;;;11.87;100.00;100935.97;4939114;29;20034;-72
2022/10/14 07:06:30;;;;;;;13.90;1.50;;;;;;;11.94;100.00;100942.22;4922959;29;20035;-72
2022/10/14 07:08:56;;;;;;;8.35;1.60;;;;;;;11.87;100.00;100930.59;4939358;29;20027;-72
2022/10/14 07:11:21;;;;;;;8.43;1.98;;;;;;;11.91;100.00;100934.53;4956321;29;20050;-72
2022/10/14 07:13:47;;;;;;;8.05;1.80;;;;;;;12.08;100.00;100945.75;4919515;29;20039;-72
2022/10/14 07:16:12;;;;;;;11.82;1.55;;;;;;;11.93;100.00;100917.13;4954494;28;20027;-73
2022/10/14 07:18:38;;;;;;;7.03;1.40;;;;;;;12.09;100.00;100942.88;4937683;29;20046;-73
2022/10/14 07:21:05;;;;;;;9.80;1.60;;;;;;;12.16;100.00;100948.28;4936906;29;20175;-72
2022/10/14 07:23:31;;;;;;;10.93;2.03;;;;;;;12.24;100.00;100958.84;4924593;29;20387;-72
2022/10/14 07:26:00;;;;;;;12.75;1.75;;;;;;;12.10;100.00;100930.22;4938277;29;20059;-72
2022/10/14 07:28:27;;;;;;;7.55;1.23;;;;;;;12.30;100.00;100954.50;4955717;29;20039;-72
2022/10/14 07:31:06;;;;;;;9.07;1.48;;;;;;;12.13;100.00;100922.53;4919067;29;20115;-73
2022/10/14 07:33:31;;;;;;;8.63;1.75;;;;;;;12.36;100.00;100961.78;4946712;29;20043;-73
2022/10/14 07:36:02;;;;;;;11.52;1.50;;;;;;;12.42;100.00;100958.25;4955686;29;20321;-72
2022/10/14 07:38:27;;;;;;;9.55;1.52;;;;;;;12.44;100.00;100958.88;4955693;29;20106;-73
2022/10/14 07:41:02;;;;;;;6.43;1.58;;;;;;;12.46;100.00;100963.03;4938569;29;20054;-72
2022/10/14 07:43:27;;;;;;;;;;;;;;;12.46;100.00;100957.63;4938923;29;20031;-72
2022/10/14 07:45:59;;;;;;;7.28;1.30;;;;;;;12.54;100.00;100961.97;4953381;29;19978;-71
2022/10/14 07:48:26;;;;;;;8.63;1.42;;;;;;;12.51;100.00;100943.50;4924357;29;20042;-74
2022/10/14 07:50:51;;;;;;;9.52;1.38;;;;;;;12.14;100.00;100881.03;4956662;29;20034;-74
2022/10/14 07:53:18;;;;;;;9.07;1.60;;;;;;;12.69;100.00;100954.50;4938929;29;20058;-75
2022/10/14 07:55:50;;;;;;;9.45;1.80;;;;;;;12.72;100.00;100955.13;4924258;29;20040;-74
2022/10/14 07:58:23;;;;;;;8.65;1.70;;;;;;;12.85;100.00;100968.63;4938719;29;20391;-75
2022/10/14 08:00:49;;;;;;;8.55;1.60;;;;;;;12.92;100.00;100962.16;4939784;29;20031;-75
2022/10/14 08:03:16;;;;;;;7.38;1.50;;;;;;;12.94;100.00;100970.03;4920608;29;20044;-74
2022/10/14 08:05:42;;;;;;;10.57;1.55;;;;;;;13.01;100.00;100978.13;4934831;29;20545;-74
2022/10/14 08:08:08;;;;;;;12.07;1.60;;;;;;;13.04;100.00;100964.19;4939751;29;20035;-75
2022/10/14 08:10:35;;;;;;;10.40;1.52;;;;;;;13.00;99.86;100946.75;4957130;28;20053;-75
2022/10/14 08:13:00;;;;;;;10.23;1.60;;;;;;;13.13;99.18;100974.56;4955814;29;20035;-74
2022/10/14 08:15:28;;;;;;;11.60;1.70;;;;;;;13.15;98.00;100974.38;4939275;29;20020;-75
2022/10/14 08:17:57;;;;;;;12.55;2.10;;;;;;;13.14;97.27;100976.25;4955260;28;20042;-74
2022/10/14 08:20:22;;;;;;;9.50;1.70;;;;;;;13.12;96.70;100964.81;4918766;29;20525;-75
2022/10/14 08:22:48;;;;;;;7.03;1.90;;;;;;;13.23;96.02;100971.41;4927845;29;20186;-75
2022/10/14 08:25:13;;;;;;;6.82;1.83;;;;;;;13.26;94.98;100972.91;4955847;28;20042;-74
2022/10/14 08:27:39;;;;;;;10.93;3.10;;;;;;;13.27;93.80;100977.25;4956439;29;20043;-74
2022/10/14 08:30:05;;;;;;;40.25;16.02;;;;;;;13.11;92.59;100946.09;4938004;29;20565;-75
2022/10/14 08:32:30;;;;;;;95.97;33.17;;;;;;;13.32;92.68;100977.47;4938292;29;20091;-75
2022/10/14 08:34:56;;;;;;;36.72;13.13;;;;;;;13.39;92.13;100979.09;4920439;29;20054;-74
2022/10/14 08:37:22;;;;;;;75.15;22.02;;;;;;;13.47;91.12;100979.91;4937389;28;20039;-74
2022/10/14 08:39:47;;;;;;;39.78;21.05;;;;;;;13.44;89.65;100980.31;4935364;29;20046;-74
2022/10/14 08:42:25;;;;;;;17.58;5.82;;;;;;;13.46;89.57;100976.38;4945620;29;20043;-75
2022/10/14 08:45:19;;;;;;;22.88;10.38;;;;;;;13.46;89.43;100978.25;4925639;29;20031;-74
2022/10/14 08:47:46;;;;;;;128.70;55.60;;;;;;;13.31;88.70;100963.13;4950959;29;20050;-74
2022/10/14 08:50:39;;;;;;;320.73;151.10;;;;;;;13.43;88.80;100974.09;4950647;29;20031;-75
2022/10/14 08:53:15;;;;;;;262.45;120.70;;;;;;;13.45;87.18;100976.59;4943195;28;20431;-74
2022/10/14 08:55:51;;;;;;;74.72;23.38;;;;;;;13.20;87.06;100935.91;4940269;29;20027;-72
2022/10/14 08:58:38;;;;;;;67.20;34.80;;;;;;;13.36;86.90;100951.66;4951070;28;20023;-74
2022/10/14 09:01:23;;;;;;;32.30;11.88;;;;;;;13.54;87.41;100983.41;4922142;29;20087;-73
2022/10/14 09:03:52;;;;;;;19.55;11.63;;;;;;;13.61;87.87;100976.94;4928670;29;20170;-74
2022/10/14 09:06:33;;;;;;;12.77;3.80;;;;;;;13.68;87.46;100970.66;4946105;29;20027;-73
2022/10/14 09:09:19;;;;;;;10.13;5.03;;;;;;;13.69;86.62;100964.22;4938816;28;20035;-73
2022/10/14 09:12:02;;;;;;;17.13;13.45;;;;;;;13.69;86.63;100975.03;4948114;29;20438;-73
2022/10/14 09:14:38;;;;;;;12.45;3.33;;;;;;;13.52;87.26;100955.75;4939128;29;20027;-74
2022/10/14 09:17:16;;;;;;;9.10;2.55;;;;;;;13.04;86.22;100899.38;4953505;29;20039;-73
2022/10/14 09:19:54;;;;;;;11.77;3.42;;;;;;;13.43;86.78;100967.84;4953684;28;20105;-74
2022/10/14 09:22:19;;;;;;;9.48;3.33;;;;;;;13.44;86.91;100959.53;4938867;29;20450;-73
2022/10/14 09:24:47;;;;;;;9.82;2.30;;;;;;;13.49;87.54;100954.31;4931838;29;20166;-75
2022/10/14 09:27:20;;;;;;;12.70;3.83;;;;;;;13.52;86.46;100953.88;4934316;29;20506;-73
2022/10/14 09:29:53;;;;;;;7.40;1.40;;;;;;;13.60;85.45;100959.03;4936726;29;20421;-73
2022/10/14 09:32:38;;;;;;;10.40;2.13;;;;;;;13.54;85.78;100949.09;4938904;28;20030;-73
2022/10/14 09:35:14;;;;;;;11.75;1.98;;;;;;;13.60;nan;100961.75;4949931;29;20050;-74
2022/10/14 09:37:41;;;;;;;7.43;2.30;;;;;;;13.70;85.30;100963.16;4953676;29;20055;-73
2022/10/14 09:40:12;;;;;;;7.53;1.52;;;;;;;13.66;84.75;100964.63;4936401;29;20458;-73
2022/10/14 09:42:47;;;;;;;6.15;1.17;;;;;;;13.70;84.08;100957.75;4953597;29;20035;-72
2022/10/14 09:45:16;;;;;;;9.43;1.33;;;;;;;13.68;83.14;100949.03;4953225;29;20056;-72
2022/10/14 09:48:02;;;;;;;7.57;1.33;;;;;;;13.67;82.53;100958.19;4934522;29;20074;-73
2022/10/14 09:50:39;;;;;;;7.05;1.33;;;;;;;13.59;83.17;100924.94;4926218;28;20043;-73
2022/10/14 09:53:33;;;;;;;5.70;1.10;;;;;;;13.93;83.03;100958.03;4947778;29;20149;-72
2022/10/14 09:56:01;;;;;;;10.23;1.40;;;;;;;13.79;81.62;100921.28;4951081;29;20043;-71
2022/10/14 09:58:44;;;;;;;7.20;1.20;;;;;;;14.05;79.77;100953.59;4935694;29;20067;-73
2022/10/14 10:01:19;;;;;;;10.20;1.65;;;;;;;13.99;79.39;100938.22;4927180;29;20447;-71
2022/10/14 10:03:50;;;;;;;32.47;11.35;;;;;;;13.80;79.55;100929.19;4950884;29;20498;-72
2022/10/14 10:06:19;;;;;;;13.55;4.72;;;;;;;13.97;80.91;100951.16;4930248;29;20063;-71
2022/10/14 10:08:57;;;;;;;7.32;1.27;;;;;;;14.06;80.40;100955.25;4934121;29;20031;-71
2022/10/14 10:11:48;;;;;;;6.43;1.30;;;;;;;14.08;79.69;100958.56;4933970;29;20090;-76
2022/10/14 10:14:25;;;;;;;7.28;1.23;;;;;;;14.04;80.62;100953.81;4938743;29;20044;-73
2022/10/14 10:17:11;;;;;;;7.97;1.33;;;;;;;14.21;80.53;100957.66;4942529;29;20030;-73
2022/10/14 10:19:50;;;;;;;8.48;1.35;;;;;;;14.18;79.49;100952.66;4949786;29;20086;-72
2022/10/14 10:22:19;;;;;;;8.88;1.20;;;;;;;14.23;80.29;100952.81;4943685;29;20031;-71
2022/10/14 10:24:45;;;;;;;7.40;1.05;;;;;;;14.23;78.59;100958.25;4949381;28;20034;-72
2022/10/14 10:27:24;;;;;;;9.55;2.00;;;;;;;14.14;79.00;100956.03;4949237;29;20428;-73
2022/10/14 10:29:49;;;;;;;9.05;2.17;;;;;;;14.09;80.14;100952.09;4947720;29;20375;-72
2022/10/14 10:32:34;;;;;;;6.60;1.67;;;;;;;14.01;80.33;100955.09;4934171;29;20034;-73
2022/10/14 10:35:30;;;;;;;7.43;1.30;;;;;;;14.04;80.20;100954.66;4953149;29;20031;-73
2022/10/14 10:38:19;;;;;;;6.18;1.20;;;;;;;14.12;79.41;100953.53;4953015;29;20043;-71
2022/10/14 10:41:15;;;;;;;5.43;1.52;;;;;;;14.26;79.56;100957.81;4936801;29;20027;-71
2022/10/14 10:43:56;;;;;;;8.70;1.20;;;;;;;14.06;79.76;100941.72;4952883;29;20030;-71
2022/10/14 10:46:30;;;;;;;8.65;1.13;;;;;;;14.15;79.67;100950.41;4937645;29;20082;-71
2022/10/14 10:49:17;;;;;;;7.88;1.20;;;;;;;14.13;78.97;100947.06;4952149;28;20728;-71
2022/10/14 10:51:52;;;;;;;8.18;1.75;;;;;;;14.01;77.55;100946.97;4951620;29;20038;-71
2022/10/14 10:54:34;;;;;;;6.95;1.10;;;;;;;14.01;77.26;100951.56;4940141;29;20031;-70
2022/10/14 10:57:23;;;;;;;5.75;1.13;;;;;;;14.09;77.02;100946.69;4944418;29;20031;-71
2022/10/14 10:59:58;;;;;;;5.90;1.40;;;;;;;14.09;77.38;100951.28;4951376;29;20031;-71
2022/10/14 11:02:43;;;;;;;5.93;1.10;;;;;;;14.06;77.69;100951.72;4939760;29;20052;-70
2022/10/14 11:05:08;;;;;;;;;;;;;;;14.03;78.70;100947.56;4935885;29;20068;-71
2022/10/14 11:14:19;;;;;;;5.85;1.30;;;;;;;14.02;77.33;100951.31;4854695;29;20034;-71
2022/10/14 11:17:09;;;;;;;6.72;1.25;;;;;;;14.03;76.86;100955.66;4933445;29;20047;-70
2022/10/14 11:20:21;;;;;;;10.00;1.40;;;;;;;14.03;77.82;100952.16;4946903;29;20075;-70
2022/10/14 11:22:59;;;;;;;6.35;1.17;;;;;;;14.06;77.79;100946.28;4837440;29;20049;-71
2022/10/14 11:25:31;;;;;;;5.10;1.10;;;;;;;14.05;77.38;100936.53;4849504;29;20495;-72
2022/10/14 11:28:11;;;;;;;5.97;1.33;;;;;;;14.05;77.58;100942.75;4853681;29;20054;-71
2022/10/14 11:31:09;;;;;;;6.50;1.05;;;;;;;13.99;78.15;100945.50;4854326;29;20584;-71
2022/10/14 11:33:49;;;;;;;9.38;1.60;;;;;;;13.96;78.43;100946.78;4802339;29;20082;-72